Latest Weather Observations for Kingfish B

IDV60801

Issued at 9:31 pm EDT Friday 30 January 2015 (issued every 30 minutes, with the page automatically refreshed every 10 minutes)

About weather observations | Map of weather stations | Latest weather observations for VIC | Other Formats
Station Details ID: 400139 Name: KINGFISH B (PLATFORM) Lat: -38.60 Lon: 148.19 Height: 31.4 m
Data from the previous 72 hours. | See also: Recent months for locations in Victoria
Date/Time
EDT
Temp
°C
App
Temp
°C
Dew
Point
Rel
Hum
%
Delta-T
°C
Wind Press
QNH
hPa
Press
MSL
hPa
Rain
since 9 am
mm
Dir
 
Spd
km/h
Gust
km/h
Spd
kts
Gust
kts
30/09:30pm 16.5 12.2 10.8 69 3.0 S 24 35 13 19 1011.4 - -
30/09:20pm 16.2 11.5 10.6 69 3.0 S 26 37 14 20 1011.5 - -
30/09:10pm 16.3 10.8 10.6 69 3.0 S 30 39 16 21 1011.5 - -
30/09:00pm 16.5 11.4 10.5 67 3.2 S 28 39 15 21 1011.4 - -
30/08:50pm 16.6 11.5 10.6 67 3.2 S 28 39 15 21 1011.3 - -
30/08:40pm 16.7 12.4 10.6 67 3.3 SSW 24 35 13 19 1011.1 - -
30/08:30pm 16.7 11.9 10.4 66 3.3 SSW 26 35 14 19 1011.2 - -
30/08:20pm 16.7 11.6 10.5 67 3.3 SSW 28 39 15 21 1011.1 - -
30/08:10pm 16.4 11.2 10.3 67 3.2 S 28 39 15 21 1011.2 - -
30/08:00pm 16.5 11.7 10.2 66 3.3 S 26 35 14 19 1011.2 - -
30/07:50pm 16.7 10.7 10.1 65 3.5 SSW 32 39 17 21 1011.3 - -
30/07:40pm 16.8 11.2 10.0 64 3.6 SSW 30 39 16 21 1011.2 - -
30/07:30pm 16.7 10.7 10.1 65 3.5 SSW 32 41 17 22 1011.2 - -
30/07:20pm 16.7 11.1 10.2 65 3.4 SSW 30 39 16 21 1011.3 - -
30/07:10pm 16.6 10.6 10.2 66 3.4 SSW 32 37 17 20 1011.4 - -
30/06:50pm 16.8 10.8 10.8 67 3.2 SSW 33 43 18 23 1011.4 - -
30/06:40pm 16.7 10.8 10.5 67 3.3 SSW 32 41 17 22 1011.5 - -
30/06:30pm 16.4 10.2 10.2 66 3.3 SSW 33 41 18 22 1011.8 - -
30/06:20pm 16.4 9.1 10.2 66 3.3 S 39 44 21 24 1012.0 - -
30/06:10pm 16.6 10.1 10.4 67 3.3 SSW 35 41 19 22 1011.8 - -
30/06:00pm 16.4 9.5 10.3 67 3.2 SSW 37 43 20 23 1012.0 - -
30/05:50pm 16.4 10.5 10.4 67 3.2 SSW 32 39 17 21 1011.9 - -
30/05:40pm 16.4 9.9 10.4 67 3.2 SSW 35 44 19 24 1012.0 - -
30/05:30pm 15.9 9.8 10.4 70 2.9 S 33 43 18 23 1012.1 - -
30/05:20pm 16.0 9.2 10.6 70 2.9 S 37 44 20 24 1012.2 - -
30/05:10pm 15.9 9.1 10.6 71 2.8 S 37 44 20 24 1012.3 - -
30/05:00pm 15.6 9.3 10.9 73 2.5 S 35 46 19 25 1012.3 - -
30/04:50pm 15.6 9.0 11.2 75 2.4 S 37 46 20 25 1012.5 - -
30/04:40pm 15.5 7.7 11.0 74 2.4 S 43 54 23 29 1012.7 - -
30/04:30pm 16.0 8.1 10.8 71 2.8 S 43 52 23 28 1012.7 - -
30/04:20pm 16.0 8.1 10.7 71 2.8 S 43 54 23 29 1012.8 - -
30/04:10pm 16.0 7.1 10.7 71 2.8 S 48 59 26 32 1013.0 - -
30/04:00pm 15.7 6.9 10.8 72 2.6 S 48 57 26 31 1013.1 - -
30/03:50pm 15.6 6.9 11.4 76 2.3 S 48 57 26 31 1013.1 - -
30/03:40pm 15.4 7.5 11.6 78 2.0 S 44 52 24 28 1013.1 - -
30/03:30pm 15.3 6.6 11.4 77 2.1 S 48 59 26 32 1013.2 - -
30/03:20pm 15.4 6.8 11.5 77 2.1 S 48 59 26 32 1013.2 - -
30/03:10pm 15.0 6.5 12.0 82 1.6 S 48 57 26 31 1013.2 - -
30/03:00pm 14.7 6.1 11.6 82 1.7 S 48 56 26 30 1013.3 - -
30/02:50pm 15.3 6.7 11.5 78 2.0 S 48 59 26 32 1013.2 - -
30/02:40pm 15.6 6.6 11.5 76 2.2 S 50 57 27 31 1013.2 - -
30/02:20pm 15.7 8.1 12.3 80 1.9 S 44 54 24 29 1013.1 - -
30/02:10pm 15.3 7.7 12.3 82 1.6 S 44 54 24 29 1013.2 - -
30/02:00pm 15.0 6.9 12.2 83 1.5 S 46 61 25 33 1013.5 - -
30/01:50pm 15.2 6.6 11.8 80 1.8 SSE 48 56 26 30 1013.6 - -
30/01:40pm 15.5 6.6 12.0 79 1.9 SSE 50 61 27 33 1013.5 - -
30/01:30pm 15.4 7.7 12.2 81 1.7 S 44 56 24 30 1013.5 - -
30/01:20pm 15.3 6.9 12.2 82 1.7 SSE 48 56 26 30 1013.7 - -
30/01:10pm 15.4 7.3 12.2 81 1.7 SSE 46 56 25 30 1013.7 - -
30/01:00pm 15.3 7.2 12.0 81 1.8 SSE 46 52 25 28 1013.7 - -
30/12:50pm 15.4 7.4 12.3 82 1.7 SSE 46 56 25 30 1013.7 - -
30/12:40pm 15.3 7.3 12.3 82 1.6 SSE 46 54 25 29 1013.7 - -
30/12:30pm 15.2 7.2 12.4 83 1.5 SSE 46 52 25 28 1013.7 - -
30/12:20pm 15.2 7.6 12.5 84 1.5 SSE 44 54 24 29 1013.8 - -
30/12:10pm 15.0 7.1 12.6 85 1.3 SSE 46 57 25 31 1013.8 - -
30/12:00pm 14.8 6.9 12.7 87 1.2 SSE 46 54 25 29 1013.9 - -
30/11:50am 14.8 7.9 12.8 88 1.1 S 41 52 22 28 1013.8 - -
30/11:40am 14.8 7.5 12.8 88 1.1 SSE 43 50 23 27 1013.9 - -
30/11:30am 14.7 7.2 12.8 88 1.0 SSE 44 56 24 30 1013.9 - -
30/11:20am 15.0 7.6 12.9 87 1.2 SSE 44 54 24 29 1014.0 - -
30/11:10am 15.0 7.6 12.9 87 1.2 SSE 44 50 24 27 1013.9 - -
30/11:00am 14.8 7.5 12.8 88 1.1 SSE 43 54 23 29 1014.0 - -
30/10:50am 14.9 6.7 12.8 87 1.2 SSE 48 57 26 31 1014.2 - -
30/10:40am 14.8 7.3 12.6 87 1.2 SSE 44 57 24 31 1014.1 - -
30/10:30am 15.1 7.6 12.6 85 1.4 SSE 44 59 24 32 1014.1 - -
30/10:20am 15.2 7.8 12.6 84 1.4 S 43 54 23 29 1014.1 - -
30/10:10am 14.8 7.4 12.4 85 1.3 SSE 43 52 23 28 1014.0 - -
30/10:00am 15.1 7.2 12.6 85 1.4 SSE 46 56 25 30 1014.2 - -
30/09:50am 15.1 7.5 12.3 83 1.5 SSE 44 52 24 28 1014.1 - -
30/09:30am 15.3 8.6 12.4 83 1.6 SSE 39 48 21 26 1014.0 - -
30/09:20am 15.3 9.1 12.6 84 1.5 SSE 37 48 20 26 1014.0 - -
30/09:10am 15.2 8.2 12.5 84 1.5 SSE 41 50 22 27 1014.1 - -
30/09:00am 14.9 7.8 12.2 84 1.5 SSE 41 48 22 26 1014.0 - -
30/08:50am 15.0 8.7 12.2 83 1.5 SSE 37 52 20 28 1013.9 - -
30/08:40am 14.7 7.2 12.1 84 1.4 SSE 43 50 23 27 1014.1 - -
30/08:30am 15.0 8.6 12.1 83 1.6 SSE 37 46 20 25 1013.9 - -
30/08:20am 14.7 7.5 11.9 83 1.5 SSE 41 54 22 29 1014.0 - -
30/08:10am 14.5 6.8 11.6 83 1.6 SSE 43 57 23 31 1014.1 - -
30/08:00am 15.2 7.5 11.5 78 2.0 SSE 43 52 23 28 1014.1 - -
30/07:50am 15.3 8.4 11.5 78 2.0 SSE 39 54 21 29 1013.8 - -
30/07:40am 15.1 8.5 11.3 78 2.0 SSE 37 46 20 25 1013.8 - -
30/07:30am 15.1 7.1 11.2 77 2.1 SSE 44 54 24 29 1014.1 - -
30/07:20am 15.2 6.8 11.0 76 2.2 SSE 46 54 25 29 1014.1 - -
30/07:10am 15.1 6.6 10.8 75 2.3 SSE 46 54 25 29 1014.1 - -
30/07:00am 15.1 7.0 10.7 75 2.3 SSE 44 52 24 28 1014.0 - -
30/06:50am 15.0 7.0 10.6 75 2.3 SSE 43 52 23 28 1013.9 - -
30/06:40am 15.1 6.6 10.6 74 2.4 SSE 46 54 25 29 1014.1 - -
30/06:30am 15.2 6.6 10.4 73 2.5 SSE 46 56 25 30 1014.0 - -
30/06:20am 15.1 7.1 10.6 74 2.4 SSE 43 52 23 28 1013.9 - -
30/06:10am 15.2 7.0 10.5 73 2.5 SSE 44 54 24 29 1014.0 - -
30/06:00am 15.0 6.8 10.4 74 2.4 SSE 44 54 24 29 1014.0 - -
30/05:40am 15.0 6.8 10.4 74 2.4 SSE 44 52 24 28 1014.1 - -
30/05:30am 15.0 7.0 10.4 74 2.4 SSE 43 52 23 28 1014.2 - -
30/05:20am 14.9 6.4 10.5 75 2.3 SSE 46 59 25 32 1014.4 - -
30/05:10am 15.0 6.5 10.5 74 2.4 SSE 46 56 25 30 1014.3 - -
30/05:00am 15.1 6.9 10.5 74 2.4 SSE 44 54 24 29 1014.3 - -
30/04:50am 15.0 6.4 10.4 74 2.4 SSE 46 56 25 30 1014.6 - -
30/04:40am 15.0 6.7 10.2 73 2.5 SSE 44 56 24 30 1014.6 - -
30/04:30am 14.9 6.6 10.2 73 2.5 SSE 44 56 24 30 1014.7 - -
30/04:20am 14.8 6.1 9.9 72 2.5 SSE 46 54 25 29 1014.9 - -
30/04:10am 14.9 5.8 9.8 71 2.6 SSE 48 56 26 30 1015.1 - -
30/04:00am 15.2 6.1 9.9 70 2.8 SSE 48 56 26 30 1015.2 - -
30/03:50am 15.2 6.5 9.9 70 2.8 SSE 46 56 25 30 1015.3 - -
30/03:40am 15.2 6.6 10.2 72 2.6 SSE 46 59 25 32 1015.4 - -
30/03:30am 15.1 6.4 10.0 71 2.7 SSE 46 54 25 29 1015.6 - -
30/03:20am 15.1 5.6 9.8 70 2.8 SSE 50 61 27 33 1015.8 - -
30/03:00am 15.4 6.4 10.3 71 2.7 SSE 48 59 26 32 1015.7 - -
30/02:50am 15.4 6.0 10.0 70 2.8 SSE 50 61 27 33 1015.8 - -
30/02:40am 15.3 5.8 9.9 70 2.8 SSE 50 65 27 35 1015.9 - -
30/02:30am 15.4 5.6 10.1 70 2.8 SSE 52 63 28 34 1016.0 - -
30/02:20am 15.4 6.0 10.0 70 2.8 SSE 50 61 27 33 1016.1 - -
30/02:10am 15.4 6.4 10.1 70 2.8 SSE 48 61 26 33 1016.1 - -
30/02:00am 15.4 6.1 10.4 72 2.6 SSE 50 59 27 32 1016.3 - -
30/01:50am 15.4 6.1 10.5 72 2.6 SSE 50 59 27 32 1016.5 - -
30/01:40am 15.6 6.2 10.2 70 2.8 SSE 50 61 27 33 1016.5 - -
30/01:30am 15.5 6.1 10.3 71 2.7 SSE 50 61 27 33 1016.6 - -
30/01:20am 15.4 6.0 10.1 70 2.8 SSE 50 61 27 33 1016.7 - -
30/01:10am 15.5 7.3 10.4 71 2.7 SSE 44 57 24 31 1016.8 - -
30/01:00am 15.6 7.4 10.3 70 2.8 SSE 44 56 24 30 1016.9 - -
30/12:50am 15.8 7.6 10.3 70 2.9 SSE 44 57 24 31 1016.9 - -
30/12:40am 16.0 7.9 10.0 67 3.1 SSE 43 56 23 30 1016.9 - -
30/12:30am 16.1 7.7 9.8 66 3.3 SSE 44 54 24 29 1017.2 - -
30/12:20am 16.2 7.8 9.7 65 3.4 SSE 44 54 24 29 1017.2 - -
30/12:10am 16.4 8.6 9.8 65 3.5 SSE 41 56 22 30 1017.2 - -
30/12:00am 16.2 9.8 10.7 70 2.9 SSE 35 46 19 25 1017.3 - -
 
Date/Time
EDT
Temp
°C
App
Temp
°C
Dew
Point
Rel
Hum
%
Delta-T
°C
Wind Press
QNH
hPa
Press
MSL
hPa
Rain
since 9 am
mm
Dir
 
Spd
km/h
Gust
km/h
Spd
kts
Gust
kts
29/11:50pm 16.0 8.4 10.6 70 2.9 SE 41 50 22 27 1017.4 - -
29/11:40pm 16.0 7.8 10.5 70 2.9 SE 44 54 24 29 1017.5 - -
29/11:30pm 16.1 7.5 10.4 69 3.0 SE 46 57 25 31 1017.4 - -
29/11:20pm 16.5 8.3 10.3 67 3.3 SE 44 59 24 32 1017.5 - -
29/11:10pm 16.5 8.1 9.6 63 3.6 SE 44 56 24 30 1017.6 - -
29/11:00pm 16.5 8.3 9.7 64 3.6 SSE 43 57 23 31 1017.7 - -
29/10:50pm 16.5 7.8 9.8 64 3.5 SE 46 59 25 32 1017.5 - -
29/10:40pm 16.7 8.4 10.1 65 3.5 SE 44 57 24 31 1017.5 - -
29/10:30pm 16.6 8.2 9.8 64 3.6 SE 44 56 24 30 1017.6 - -
29/10:20pm 16.6 8.5 10.2 66 3.4 SE 43 57 23 31 1017.5 - -
29/10:10pm 16.6 7.9 10.1 65 3.4 SE 46 56 25 30 1017.5 - -
29/10:00pm 16.6 8.6 10.5 67 3.2 SE 43 56 23 30 1017.4 - -
29/09:50pm 16.7 8.7 10.6 67 3.3 SE 43 59 23 32 1017.5 - -
29/09:40pm 16.7 9.0 10.3 66 3.4 SSE 41 50 22 27 1017.4 - -
29/09:20pm 16.9 9.3 10.4 65 3.5 SSE 41 52 22 28 1017.2 - -
29/09:10pm 16.8 8.6 9.8 63 3.7 SE 43 54 23 29 1017.2 - -
29/09:00pm 16.9 8.8 9.9 63 3.7 SE 43 57 23 31 1017.1 - -
29/08:50pm 16.9 8.5 9.6 62 3.8 SE 44 52 24 28 1017.3 - -
29/08:40pm 16.9 8.7 9.8 63 3.7 SE 43 54 23 29 1017.2 - -
29/08:30pm 16.9 9.0 9.5 61 3.9 SSE 41 52 22 28 1017.4 - -
29/08:20pm 16.9 8.5 9.5 61 3.9 SE 44 56 24 30 1017.3 - -
29/08:10pm 17.0 8.6 9.7 62 3.8 SE 44 54 24 29 1017.2 - -
29/08:00pm 16.9 8.1 9.6 62 3.8 SE 46 57 25 31 1017.1 - -
29/07:50pm 16.9 8.2 9.9 63 3.7 SE 46 56 25 30 1017.3 - -
29/07:40pm 16.9 7.9 10.1 64 3.6 SE 48 57 26 31 1017.3 - -
29/07:30pm 17.0 8.7 10.1 64 3.6 SE 44 57 24 31 1017.3 - -
29/07:20pm 16.9 7.9 10.3 65 3.5 SE 48 59 26 32 1017.3 - -
29/07:10pm 17.0 8.8 10.5 65 3.5 SE 44 56 24 30 1017.3 - -
29/07:00pm 17.0 8.8 10.3 64 3.6 SE 44 56 24 30 1017.4 - -
29/06:50pm 17.0 9.0 10.5 65 3.5 SE 43 52 23 28 1017.4 - -
29/06:40pm 17.1 9.6 10.9 67 3.3 SE 41 52 22 28 1017.3 - -
29/06:30pm 17.1 9.1 10.5 65 3.5 SE 43 52 23 28 1017.4 - -
29/06:20pm 17.1 9.5 10.6 65 3.5 SE 41 50 22 27 1017.6 - -
29/06:10pm 17.1 9.1 10.4 64 3.6 SE 43 52 23 28 1017.6 - -
29/06:00pm 17.0 8.5 10.5 65 3.5 SE 46 59 25 32 1017.6 - -
29/05:50pm 17.0 9.0 10.4 65 3.5 SE 43 56 23 30 1017.8 - -
29/05:40pm 17.0 9.1 11.5 70 3.0 SSE 44 54 24 29 1017.9 - -
29/05:30pm 16.6 10.0 13.6 82 1.7 SE 41 50 22 27 1017.8 - -
29/05:20pm 15.9 9.9 14.5 91 0.8 SSE 39 46 21 25 1017.9 - -
29/05:10pm 15.6 9.2 14.4 93 0.7 SE 41 50 22 27 1017.8 - -
29/05:00pm 15.7 9.8 14.6 93 0.6 SE 39 46 21 25 1017.8 - -
29/04:50pm 15.7 10.2 14.6 93 0.6 SE 37 48 20 26 1017.8 - -
29/04:40pm 15.5 9.5 14.4 93 0.6 SE 39 48 21 26 1017.8 - -
29/04:30pm 15.5 9.9 14.5 94 0.6 SE 37 46 20 25 1017.7 - -
29/04:20pm 15.1 10.8 14.5 96 0.3 SE 30 44 16 24 1017.8 - -
29/04:10pm 14.8 13.8 14.5 98 0.2 ESE 13 17 7 9 1017.7 - -
29/04:00pm 14.4 11.9 14.1 98 0.2 ESE 20 30 11 16 1017.8 - -
29/03:50pm 14.4 9.4 14.1 98 0.2 ESE 33 41 18 22 1018.0 - -
29/03:40pm 14.1 8.7 13.8 98 0.2 SE 35 44 19 24 1018.3 - -
29/03:30pm 13.7 8.5 13.5 99 0.1 SE 33 48 18 26 1018.5 - -
29/03:20pm 13.5 7.1 13.2 98 0.2 SE 39 48 21 26 1018.6 - -
29/03:10pm 14.4 7.5 12.9 91 0.8 SSE 41 61 22 33 1018.6 - -
29/03:00pm 17.0 11.1 11.3 69 3.1 SE 33 46 18 25 1018.1 - -
29/02:50pm 16.9 12.0 11.4 70 3.0 SE 28 37 15 20 1018.1 - -
29/02:30pm 16.0 12.0 11.7 75 2.3 SSE 24 30 13 16 1018.4 - -
29/02:20pm 15.8 10.5 11.3 74 2.4 SSE 30 39 16 21 1018.6 - -
29/02:10pm 15.8 9.5 10.9 72 2.6 SSE 35 43 19 23 1018.7 - -
29/02:00pm 15.8 8.4 11.1 73 2.5 SE 41 48 22 26 1018.7 - -
29/01:50pm 16.8 10.4 11.9 73 2.7 SSE 37 48 20 26 1018.6 - -
29/01:40pm 16.6 10.5 11.8 73 2.6 SSE 35 44 19 24 1018.6 - -
29/01:30pm 16.3 11.4 12.7 79 2.0 SSE 30 37 16 20 1018.6 - -
29/01:20pm 16.1 11.7 14.0 87 1.2 SSE 30 43 16 23 1018.6 - -
29/01:10pm 15.6 11.7 14.5 93 0.6 SSE 28 35 15 19 1018.5 - -
29/01:00pm 14.6 11.7 13.9 96 0.4 SSE 22 37 12 20 1018.5 - -
29/12:50pm 15.6 10.7 12.7 83 1.6 SSE 30 50 16 27 1018.7 - -
29/12:40pm 16.9 12.6 12.2 74 2.6 SSE 26 33 14 18 1018.6 - -
29/12:30pm 16.6 12.4 12.3 76 2.4 SSE 26 32 14 17 1018.7 - -
29/12:20pm 16.5 10.9 12.2 76 2.4 SSE 33 39 18 21 1018.9 - -
29/12:10pm 16.7 11.1 12.2 75 2.5 SSE 33 41 18 22 1018.9 - -
29/12:00pm 17.0 11.5 11.8 71 2.8 SSE 32 41 17 22 1018.7 - -
29/11:50am 17.2 13.3 10.7 65 3.5 SSE 22 30 12 16 1018.6 - -
29/11:40am 17.1 12.2 11.2 68 3.2 SSE 28 37 15 20 1018.7 - -
29/11:30am 17.1 12.1 10.9 67 3.3 SSE 28 37 15 20 1018.6 - -
29/11:20am 17.0 12.2 11.5 70 3.0 SSE 28 37 15 20 1018.5 - -
29/11:10am 16.7 12.4 12.1 74 2.5 SSE 26 33 14 18 1018.7 - -
29/11:00am 16.3 11.6 11.9 75 2.4 S 28 33 15 18 1018.8 - -
29/10:50am 16.3 11.4 11.3 72 2.7 SSE 28 35 15 19 1018.8 - -
29/10:40am 16.3 11.8 11.5 73 2.6 SSE 26 33 14 18 1018.7 - -
29/10:30am 16.4 10.8 11.5 73 2.7 SSE 32 39 17 21 1018.7 - -
29/10:20am 16.5 10.9 11.6 73 2.7 SSE 32 39 17 21 1018.8 - -
29/10:10am 16.5 11.6 11.2 71 2.9 SSE 28 39 15 21 1018.7 - -
29/10:00am 16.5 11.6 11.2 71 2.9 SSE 28 35 15 19 1018.7 - -
29/09:50am 16.6 11.1 10.5 67 3.2 SSE 30 39 16 21 1018.7 - -
29/09:40am 16.7 11.3 11.0 69 3.1 SSE 30 39 16 21 1018.7 - -
29/09:30am 16.7 11.4 11.3 70 2.9 SSE 30 35 16 19 1018.6 - -
29/09:20am 16.7 10.9 10.8 68 3.2 SSE 32 39 17 21 1018.6 - -
29/09:10am 16.7 10.8 10.5 67 3.3 SE 32 39 17 21 1018.4 - -
29/09:00am 16.5 10.7 10.9 69 3.0 SSE 32 39 17 21 1018.4 - -
29/08:50am 16.4 9.7 11.1 71 2.8 SSE 37 50 20 27 1018.4 - -
29/08:40am 16.6 9.6 11.1 70 3.0 SSE 39 48 21 26 1018.4 - -
29/08:20am 16.3 9.8 10.5 68 3.1 SE 35 46 19 25 1018.1 - -
29/08:10am 16.2 10.2 10.9 71 2.8 SSE 33 44 18 24 1018.2 - -
29/08:00am 16.3 9.5 10.7 69 3.0 SSE 37 46 20 25 1018.2 - -
29/07:50am 16.1 10.2 10.4 69 3.0 SSE 32 43 17 23 1018.0 - -
29/07:40am 16.2 10.4 10.7 70 2.9 SE 32 43 17 23 1017.9 - -
29/07:30am 16.1 10.2 10.6 70 2.9 SE 32 41 17 22 1017.8 - -
29/07:20am 15.6 10.2 10.8 73 2.6 SE 30 41 16 22 1017.7 - -
29/07:10am 15.3 10.2 10.5 73 2.5 SE 28 43 15 23 1017.7 - -
29/07:00am 15.7 9.2 10.4 71 2.8 SSE 35 44 19 24 1018.0 - -
29/06:50am 16.1 9.6 10.4 69 3.0 SSE 35 44 19 24 1018.0 - -
29/06:30am 16.0 9.6 10.6 70 2.9 SE 35 48 19 26 1017.8 - -
29/06:20am 15.9 8.6 10.1 68 3.0 SE 39 46 21 25 1017.8 - -
29/06:10am 15.9 8.9 9.8 67 3.2 SSE 37 44 20 24 1018.0 - -
29/06:00am 16.0 9.1 10.3 69 3.0 SSE 37 46 20 25 1018.0 - -
29/05:50am 16.2 8.7 9.5 64 3.5 SSE 39 48 21 26 1018.0 - -
29/05:40am 16.2 8.4 9.6 65 3.4 SE 41 50 22 27 1017.9 - -
29/05:30am 16.2 8.4 9.7 65 3.4 SE 41 52 22 28 1017.9 - -
29/05:20am 16.2 8.4 9.8 66 3.3 SE 41 50 22 27 1017.9 - -
29/05:10am 16.2 8.4 9.8 66 3.3 SE 41 54 22 29 1017.9 - -
29/05:00am 15.8 7.5 9.9 68 3.1 SE 44 56 24 30 1017.9 - -
29/04:50am 15.3 8.8 10.3 72 2.6 SE 35 50 19 27 1018.0 - -
29/04:30am 15.8 7.7 9.9 68 3.1 SE 43 56 23 30 1018.2 - -
29/04:10am 15.8 8.6 10.5 71 2.8 SE 39 48 21 26 1018.4 - -
29/04:00am 15.7 7.6 9.9 68 3.0 SE 43 50 23 27 1018.4 - -
29/03:50am 16.0 8.3 10.3 69 3.0 SE 41 54 22 29 1018.5 - -
29/03:40am 16.1 9.4 9.7 66 3.3 SE 35 44 19 24 1018.5 - -
29/03:30am 16.1 8.7 9.9 66 3.2 SE 39 46 21 25 1018.7 - -
29/03:20am 15.8 10.0 10.8 72 2.7 SE 32 46 17 25 1018.7 - -
29/03:10am 15.1 10.5 11.0 76 2.2 ESE 26 35 14 19 1018.5 - -
29/03:00am 14.9 8.6 10.9 77 2.1 ESE 35 43 19 23 1018.7 - -
29/02:50am 14.5 8.2 11.2 80 1.8 ESE 35 43 19 23 1018.8 - -
29/02:40am 14.6 7.8 12.1 85 1.4 ESE 39 57 21 31 1018.8 - -
29/02:30am 14.2 7.9 12.4 89 1.0 SE 37 46 20 25 1019.1 - -
29/02:20am 15.0 9.5 11.7 80 1.8 SE 32 44 17 24 1019.0 - -
29/02:10am 15.4 9.7 11.7 78 2.0 SE 33 48 18 26 1019.1 - -
29/02:00am 14.8 7.5 11.6 81 1.7 SE 41 56 22 30 1019.2 - -
29/01:50am 15.9 8.5 11.3 74 2.5 SE 41 48 22 26 1019.4 - -
29/01:40am 15.3 9.6 11.2 76 2.2 SE 32 43 17 23 1019.5 - -
29/01:30am 16.0 8.1 10.7 71 2.8 SE 43 54 23 29 1019.7 - -
29/01:20am 16.6 10.1 10.4 67 3.3 SE 35 44 19 24 1019.7 - -
29/01:10am 16.5 9.5 9.9 65 3.5 SE 37 43 20 23 1019.7 - -
29/01:00am 16.4 9.6 10.6 68 3.1 SE 37 46 20 25 1019.8 - -
29/12:40am 16.3 8.7 10.6 69 3.0 SE 41 50 22 27 1019.8 - -
29/12:30am 16.1 9.4 11.0 72 2.7 SE 37 50 20 27 1019.9 - -
29/12:20am 16.2 7.8 11.0 71 2.8 SE 46 57 25 31 1020.0 - -
29/12:10am 16.0 9.7 11.2 73 2.6 SE 35 44 19 24 1019.9 - -
29/12:00am 16.2 9.0 10.7 70 2.9 ESE 39 50 21 27 1019.9 - -
 
Date/Time
EDT
Temp
°C
App
Temp
°C
Dew
Point
Rel
Hum
%
Delta-T
°C
Wind Press
QNH
hPa
Press
MSL
hPa
Rain
since 9 am
mm
Dir
 
Spd
km/h
Gust
km/h
Spd
kts
Gust
kts
28/11:50pm 16.5 10.0 10.4 67 3.2 SE 35 43 19 23 1020.2 - -
28/11:40pm 16.5 9.1 9.9 65 3.5 SE 39 46 21 25 1020.3 - -
28/11:30pm 16.3 9.5 10.7 69 3.0 SE 37 48 20 26 1020.3 - -
28/11:20pm 15.8 10.2 12.2 79 2.0 SE 33 44 18 24 1020.3 - -
28/11:10pm 14.9 9.1 12.7 87 1.2 ESE 35 43 19 23 1020.2 - -
28/11:00pm 13.9 8.4 11.9 88 1.1 ESE 32 43 17 23 1020.2 - -
28/10:50pm 15.6 7.0 10.4 71 2.7 SE 46 63 25 34 1020.7 - -
28/10:40pm 16.4 10.3 10.6 68 3.1 SE 33 43 18 23 1020.5 - -
28/10:30pm 16.5 10.4 10.3 67 3.3 SE 33 44 18 24 1020.3 - -
28/10:20pm 16.4 10.4 10.7 69 3.0 SE 33 43 18 23 1020.1 - -
28/10:00pm 16.5 9.8 9.7 64 3.6 SE 35 43 19 23 1020.2 - -
28/09:50pm 16.4 9.7 9.7 64 3.5 SE 35 46 19 25 1020.1 - -
28/09:40pm 16.4 9.7 9.6 64 3.5 SE 35 43 19 23 1020.2 - -
28/09:30pm 16.4 10.0 9.4 63 3.6 SE 33 41 18 22 1020.2 - -
28/09:20pm 16.5 10.3 9.9 65 3.5 SE 33 41 18 22 1020.1 - -
28/09:10pm 16.5 9.8 9.5 63 3.6 SE 35 43 19 23 1020.1 - -
28/09:00pm 16.5 10.3 9.9 65 3.5 SE 33 39 18 21 1020.0 - -
28/08:50pm 16.5 10.3 9.9 65 3.5 SE 33 41 18 22 1020.0 - -
28/08:30pm 16.7 9.5 10.4 66 3.3 ESE 39 44 21 24 1019.9 - -
28/08:20pm 16.9 10.1 9.2 60 4.0 SE 35 43 19 23 1019.8 - -
28/08:10pm 17.0 10.6 9.2 60 4.1 SE 33 41 18 22 1019.7 - -
28/08:00pm 17.0 10.5 9.1 59 4.1 SE 33 41 18 22 1019.7 - -
28/07:50pm 17.0 10.2 9.3 60 4.0 SE 35 41 19 22 1019.6 - -
28/07:40pm 17.1 10.7 9.3 60 4.1 SE 33 41 18 22 1019.5 - -
28/07:30pm 17.1 10.5 8.5 57 4.4 SE 33 43 18 23 1019.6 - -
28/07:20pm 17.1 10.2 8.8 58 4.3 SE 35 43 19 23 1019.6 - -
28/07:10pm 17.2 10.7 9.0 58 4.2 SE 33 41 18 22 1019.6 - -
28/07:00pm 17.1 10.2 8.7 57 4.3 SE 35 44 19 24 1019.5 - -
28/06:50pm 17.2 10.7 8.9 58 4.3 SE 33 43 18 23 1019.5 - -
28/06:40pm 17.2 10.7 9.1 59 4.2 SE 33 41 18 22 1019.4 - -
28/06:30pm 17.2 10.4 9.2 59 4.2 SE 35 44 19 24 1019.5 - -
28/06:20pm 17.3 10.5 9.4 59 4.1 SE 35 43 19 23 1019.4 - -
28/06:10pm 17.3 11.1 9.5 60 4.1 ESE 32 39 17 21 1019.3 - -
28/06:00pm 17.2 10.9 9.1 59 4.2 ESE 32 37 17 20 1019.3 - -
28/05:50pm 17.2 10.8 9.3 59 4.1 ESE 33 37 18 20 1019.3 - -
28/05:40pm 17.3 11.0 9.8 61 4.0 SE 33 41 18 22 1019.3 - -
28/05:30pm 17.3 10.8 9.0 58 4.3 SE 33 39 18 21 1019.3 - -
28/05:20pm 17.3 11.0 9.6 60 4.0 SE 33 39 18 21 1019.4 - -
28/05:10pm 17.4 11.5 10.3 63 3.8 SE 32 39 17 21 1019.5 - -
28/05:00pm 17.3 11.2 10.3 63 3.7 SE 33 41 18 22 1019.6 - -
28/04:50pm 17.3 11.2 10.3 63 3.7 SE 33 43 18 23 1019.7 - -
28/04:40pm 17.3 11.2 10.5 64 3.6 SE 33 41 18 22 1019.8 - -
28/04:30pm 17.5 11.3 9.4 59 4.2 SE 32 43 17 23 1019.7 - -
28/04:20pm 17.4 10.6 9.3 59 4.2 SE 35 41 19 22 1019.7 - -
28/04:10pm 17.6 11.3 9.7 60 4.2 SE 33 41 18 22 1019.7 - -
28/04:00pm 17.6 11.5 9.6 59 4.2 SE 32 37 17 20 1019.7 - -
28/03:40pm 17.7 12.0 9.7 59 4.2 SE 30 37 16 20 1019.7 - -
28/03:30pm 17.6 11.0 8.7 56 4.6 ESE 33 41 18 22 1019.6 - -
28/03:20pm 17.6 11.2 9.2 58 4.4 ESE 33 43 18 23 1019.5 - -
28/03:10pm 17.6 11.2 9.3 58 4.3 SE 33 43 18 23 1019.5 - -
28/03:00pm 17.6 11.0 9.9 60 4.1 SE 35 39 19 21 1019.5 - -
28/02:50pm 17.6 11.1 10.3 62 3.9 ESE 35 44 19 24 1019.5 - -
28/02:40pm 17.6 11.1 10.4 62 3.8 ESE 35 43 19 23 1019.4 - -
28/02:30pm 17.7 11.2 10.4 62 3.9 ESE 35 43 19 23 1019.5 - -
28/02:20pm 17.8 10.8 9.9 60 4.2 ESE 37 44 20 24 1019.5 - -
28/02:10pm 17.8 11.1 9.8 59 4.2 ESE 35 44 19 24 1019.5 - -
28/02:00pm 17.8 11.7 10.3 61 4.0 ESE 33 41 18 22 1019.4 - -
28/01:50pm 17.8 11.1 9.8 59 4.2 ESE 35 41 19 22 1019.3 - -
28/01:40pm 17.8 10.7 9.6 58 4.3 ESE 37 43 20 23 1019.3 - -
28/01:30pm 17.8 11.3 10.5 62 3.9 ESE 35 43 19 23 1019.3 - -
28/01:20pm 17.8 10.8 10.1 60 4.1 ESE 37 44 20 24 1019.3 - -
28/01:10pm 17.8 10.8 9.9 60 4.2 ESE 37 43 20 23 1019.3 - -
28/01:00pm 17.8 10.8 9.9 60 4.2 ESE 37 44 20 24 1019.2 - -
28/12:50pm 17.7 10.3 9.7 59 4.2 ESE 39 46 21 25 1019.2 - -
28/12:30pm 17.8 10.1 10.3 61 4.0 ESE 41 48 22 26 1019.2 - -
28/12:20pm 17.9 10.7 10.6 62 3.9 ESE 39 44 21 24 1019.2 - -
28/12:00pm 17.8 11.4 10.7 63 3.8 ESE 35 43 19 23 1019.2 - -
28/11:50am 17.4 11.3 11.8 69 3.1 ESE 35 44 19 24 1019.1 - -
28/11:40am 17.5 12.0 12.4 72 2.8 ESE 33 43 18 23 1019.0 - -
28/11:30am 17.5 12.2 12.4 72 2.8 ESE 32 37 17 20 1019.1 - -
28/11:20am 17.2 12.1 12.0 71 2.9 E 30 35 16 19 1019.1 - -
28/11:10am 17.7 12.2 12.4 71 2.9 ESE 33 39 18 21 1019.1 - -
28/11:00am 17.7 12.2 12.0 69 3.1 ESE 32 39 17 21 1019.2 - -
28/10:50am 17.8 12.4 12.3 70 3.0 ESE 32 37 17 20 1019.1 - -
28/10:40am 17.5 11.4 11.7 69 3.2 ESE 35 39 19 21 1019.0 - -
28/10:30am 17.6 11.6 12.1 70 3.0 ESE 35 39 19 21 1019.0 - -
28/10:20am 17.5 11.5 12.0 70 3.0 ESE 35 41 19 22 1018.9 - -
28/10:10am 17.7 11.4 12.4 71 2.9 SE 37 44 20 24 1018.8 - -
28/10:00am 18.0 12.1 12.4 70 3.1 SE 35 43 19 23 1018.7 - -
28/09:50am 18.4 13.5 11.2 63 3.9 ESE 28 35 15 19 1018.6 - -
28/09:40am 18.5 13.4 10.5 59 4.3 ESE 28 33 15 18 1018.5 - -
28/09:30am 18.4 13.8 11.1 62 4.0 ESE 26 33 14 18 1018.4 - -
28/09:20am 18.1 13.4 10.8 62 3.9 ESE 26 32 14 17 1018.4 - -
28/09:10am 18.4 14.0 10.4 59 4.3 ESE 24 28 13 15 1018.3 - -
28/09:00am 18.5 14.2 10.8 61 4.2 ESE 24 30 13 16 1018.1 - -
28/08:50am 18.3 13.2 10.5 60 4.2 ESE 28 32 15 17 1018.0 - -
28/08:40am 18.7 14.1 10.9 60 4.2 ESE 26 32 14 17 1017.8 - -
28/08:30am 18.3 14.0 10.6 61 4.1 ESE 24 30 13 16 1017.7 - -
28/08:20am 18.4 14.5 10.7 61 4.2 ESE 22 30 12 16 1017.7 - -
28/08:10am 18.1 13.3 10.4 60 4.1 ESE 26 30 14 16 1017.6 - -
28/08:00am 18.1 13.7 10.5 61 4.1 ESE 24 30 13 16 1017.5 - -
28/07:50am 17.9 13.6 10.8 63 3.8 ESE 24 30 13 16 1017.4 - -
28/07:40am 17.6 13.8 11.3 66 3.4 ESE 22 30 12 16 1017.4 - -
28/07:30am 17.5 13.5 10.6 64 3.7 SE 22 28 12 15 1017.5 - -
28/07:20am 17.4 13.0 10.5 64 3.7 ESE 24 28 13 15 1017.4 - -
28/07:10am 17.2 12.9 10.7 65 3.5 ESE 24 30 13 16 1017.3 - -
28/07:00am 17.2 12.4 11.5 69 3.1 SE 28 37 15 20 1017.2 - -
28/06:50am 17.1 11.9 11.5 69 3.0 SE 30 35 16 19 1017.1 - -
28/06:40am 17.2 12.3 11.4 68 3.1 SE 28 33 15 18 1017.0 - -
28/06:30am 17.2 12.2 11.1 67 3.3 SE 28 35 15 19 1016.9 - -
28/06:20am 17.3 12.3 10.9 66 3.4 SE 28 35 15 19 1016.9 - -
28/06:10am 17.3 12.6 10.8 65 3.5 SE 26 33 14 18 1016.8 - -
28/06:00am 17.3 12.3 10.8 65 3.5 SE 28 37 15 20 1016.8 - -
28/05:50am 17.2 12.2 10.9 66 3.4 SE 28 37 15 20 1016.7 - -
28/05:40am 17.2 12.6 11.1 67 3.3 SE 26 33 14 18 1016.8 - -
28/05:30am 17.1 12.4 10.5 65 3.5 SE 26 32 14 17 1016.9 - -
28/05:20am 17.2 12.8 10.4 64 3.6 SE 24 30 13 16 1016.9 - -
28/05:10am 17.3 12.3 9.5 60 4.1 SE 26 32 14 17 1016.8 - -
28/04:50am 17.1 13.1 10.3 64 3.6 SE 22 30 12 16 1016.8 - -
28/04:40am 16.9 13.3 10.7 67 3.3 SSE 20 26 11 14 1017.0 - -
28/04:30am 16.8 13.4 10.4 66 3.4 SSE 19 26 10 14 1017.1 - -
28/04:20am 16.6 13.1 10.8 68 3.1 SSE 20 26 11 14 1017.2 - -
28/04:10am 16.6 13.3 10.9 69 3.1 SSE 19 26 10 14 1017.3 - -
28/04:00am 16.6 13.0 10.5 67 3.2 SSE 20 24 11 13 1017.3 - -
28/03:50am 16.5 13.1 10.4 67 3.2 SSE 19 24 10 13 1017.4 - -
28/03:40am 16.5 12.5 10.4 67 3.2 SSE 22 26 12 14 1017.5 - -
28/03:30am 16.5 12.8 10.3 67 3.3 SSE 20 24 11 13 1017.5 - -
28/03:10am 16.5 12.7 9.7 64 3.6 SSE 20 26 11 14 1017.6 - -
28/03:00am 16.5 12.7 9.8 64 3.5 SSE 20 26 11 14 1017.6 - -
28/02:50am 16.4 12.2 9.7 64 3.5 SSE 22 28 12 15 1017.7 - -
28/02:40am 16.4 12.5 9.6 64 3.5 SSE 20 26 11 14 1017.8 - -
28/02:30am 16.4 12.6 9.7 64 3.5 SSE 20 24 11 13 1017.8 - -
28/02:20am 16.4 13.2 9.9 65 3.4 SSE 17 22 9 12 1017.9 - -
28/02:10am 16.4 13.3 10.2 66 3.3 SSE 17 20 9 11 1017.9 - -
28/02:00am 16.4 13.7 10.5 68 3.1 SSE 15 20 8 11 1017.9 - -
28/01:50am 16.4 13.7 10.5 68 3.1 SSE 15 19 8 10 1017.9 - -
28/01:40am 16.4 14.1 10.5 68 3.1 SSE 13 17 7 9 1018.0 - -
28/01:30am 16.4 14.5 10.4 67 3.2 SSE 11 13 6 7 1017.9 - -
28/01:20am 16.4 14.8 10.2 66 3.3 SSE 9 15 5 8 1018.0 - -
28/01:10am 16.4 14.4 10.3 67 3.2 SSE 11 15 6 8 1018.1 - -
28/01:00am 16.4 14.5 10.4 67 3.2 SSE 11 15 6 8 1018.0 - -
28/12:50am 16.4 14.1 10.5 68 3.1 S 13 19 7 10 1018.0 - -
28/12:30am 16.5 14.6 10.5 67 3.2 SSE 11 17 6 9 1018.0 - -
28/12:20am 16.5 14.6 10.5 67 3.2 SSE 11 15 6 8 1017.9 - -
28/12:10am 16.5 14.2 10.5 67 3.2 SSE 13 17 7 9 1017.9 - -
28/12:00am 16.5 14.6 10.6 68 3.1 SSE 11 15 6 8 1017.9 - -
 
Date/Time
EDT
Temp
°C
App
Temp
°C
Dew
Point
Rel
Hum
%
Delta-T
°C
Wind Press
QNH
hPa
Press
MSL
hPa
Rain
since 9 am
mm
Dir
 
Spd
km/h
Gust
km/h
Spd
kts
Gust
kts
27/11:50pm 16.5 14.7 10.7 68 3.1 SSE 11 15 6 8 1018.0 - -
27/11:40pm 16.5 15.1 10.8 69 3.0 SSE 9 13 5 7 1018.0 - -
27/11:30pm 16.5 15.1 10.8 69 3.0 SSE 9 15 5 8 1017.9 - -
27/11:20pm 16.6 14.8 10.9 69 3.1 SSE 11 15 6 8 1018.0 - -
27/11:10pm 16.6 14.8 10.9 69 3.1 SSE 11 15 6 8 1017.9 - -
27/11:00pm 16.6 15.3 11.1 70 3.0 SSE 9 13 5 7 1017.8 - -
27/10:50pm 16.6 15.3 11.2 70 2.9 SSE 9 13 5 7 1017.8 - -
27/10:40pm 16.7 15.4 11.2 70 3.0 SSE 9 11 5 6 1017.7 - -
27/10:30pm 16.7 15.4 11.2 70 3.0 SSE 9 13 5 7 1017.7 - -
27/10:20pm 16.9 15.9 11.0 68 3.2 SSE 7 11 4 6 1017.7 - -
27/10:10pm 16.9 16.2 10.2 64 3.5 SE 4 7 2 4 1017.5 - -
27/10:00pm 16.9 16.2 10.0 64 3.6 SE 4 7 2 4 1017.4 - -
27/09:50pm 16.8 16.4 9.7 63 3.7 SE 2 7 1 4 1017.3 - -
27/09:40pm 16.8 16.3 9.5 62 3.8 SE 2 6 1 3 1017.2 - -

Other Formats:

Comma delimited format used in spreadsheet applications
http://www.bom.gov.au/fwo/IDV60801/IDV60801.55039.axf

JavaScript Object Notation format (JSON) in row-major order
http://www.bom.gov.au/fwo/IDV60801/IDV60801.55039.json